CheckWX is a tool to help pilots better visualize weather data.  It is not intended as a substitute for an official pre-flight weather briefing.

15:27:36 UTC

EGLL TAF
London Heathrow Airport
London, United Kingdom
TAF EGLL 171059Z 1712/1818 19010KT 9999 SCT030 TEMPO 1712/1812 7000 SHRA PROB30 TEMPO 1712/1717 21015G25KT 4000 +SHRA PROB40 TEMPO 1723/1809 21016G26KT 3000 +SHRA BKN014CB TEMPO 1809/1812 23016G26KT TEMPO 1812/1818 22015G28KT 7000 SHRA PROB30 TEMPO 1812/1818 4000 +SHRA

Oct-17@
12:00 UTC

Oct-17 @ 12:00 UTC

Oct-18@
18:00 UTC

Oct-18 @ 18:00 UTC

TAF EGLL 171059Z 1712/1818 19010KT 9999 SCT030
Wind
  • 190° at 10 KTS
Cloud Levels
  • Scattered at 3,000' AGL

Oct-17@
12:00 UTC

Oct-17 @ 12:00 UTC

Oct-17@
17:00 UTC

Oct-17 @ 17:00 UTC

PROB30 TEMPO 1712/1717 21015G25KT 4000 +SHRA

Temporary - 30% Likelihood

Temporary - 30% Likelihood during this time.

Wind
  • 210° at 15 KTS
  • {Gusting to 25 KTS
Conditions
Heavy Rain

Oct-17@
12:00 UTC

Oct-17 @ 12:00 UTC

Oct-18@
12:00 UTC

Oct-18 @ 12:00 UTC

TEMPO 1712/1812 7000 SHRA

Temporary

Temporary Changes expected for less than half the time period

Conditions
Rain

Oct-17@
23:00 UTC

Oct-17 @ 23:00 UTC

Oct-18@
09:00 UTC

Oct-18 @ 09:00 UTC

PROB40 TEMPO 1723/1809 21016G26KT 3000 +SHRA BKN014CB

Temporary - 40% Likelihood

Temporary - 40% Likelihood during this time.

Wind
  • 210° at 16 KTS
  • {Gusting to 26 KTS
Conditions
Heavy Rain
Cloud Levels
  • Broken at 1,400' AGL

Oct-18@
09:00 UTC

Oct-18 @ 09:00 UTC

Oct-18@
12:00 UTC

Oct-18 @ 12:00 UTC

TEMPO 1809/1812 23016G26KT

Temporary

Temporary Changes expected for less than half the time period

Wind
  • 230° at 16 KTS
  • {Gusting to 26 KTS

Oct-18@
12:00 UTC

Oct-18 @ 12:00 UTC

Oct-18@
18:00 UTC

Oct-18 @ 18:00 UTC

PROB30 TEMPO 1812/1818 4000 +SHRA

Temporary - 30% Likelihood

Temporary - 30% Likelihood during this time.

Conditions
Heavy Rain

Oct-18@
12:00 UTC

Oct-18 @ 12:00 UTC

Oct-18@
18:00 UTC

Oct-18 @ 18:00 UTC

TEMPO 1812/1818 22015G28KT 7000 SHRA

Temporary

Temporary Changes expected for less than half the time period

Wind
  • 220° at 15 KTS
  • {Gusting to 28 KTS
Conditions
Rain